This is the latest recevied weather packets stored in our database for station/object KQ7A. If no packets are shown the sender has not sent any weather packets the latest 10 day(s).
| Time | Temp. | Humidity | Pressure | Rain* | Wind** | Luminosity | Snow |
|---|---|---|---|---|---|---|---|
| 1777583127 | 19.44° C | 29% | 1018.4 hPa | 0 mm | - | 720 W/m² | - |
| 1777582823 | 20° C | 24% | 1018.3 hPa | 0 mm | - | 731 W/m² | - |
| 1777582521 | 20° C | 36% | 1018.4 hPa | 0 mm | - | 736 W/m² | - |
| 1777582215 | 20° C | 27% | 1018.3 hPa | 0 mm | - | 741 W/m² | - |
| 1777581913 | 20° C | 28% | 1018.3 hPa | 0 mm | - | 734 W/m² | - |
| 1777581609 | 20° C | 31% | 1018.2 hPa | 0 mm | - | 733 W/m² | - |
| 1777581303 | 20° C | 23% | 1018.4 hPa | 0 mm | - | 731 W/m² | - |
| 1777580998 | 19.44° C | 25% | 1018.8 hPa | 0 mm | - | 742 W/m² | - |
| 1777580697 | 19.44° C | 26% | 1018.6 hPa | 0 mm | - | 743 W/m² | - |
| 1777580394 | 19.44° C | 26% | 1018.6 hPa | 0 mm | - | 742 W/m² | - |
| 1777580090 | 19.44° C | 26% | 1018.6 hPa | 0 mm | - | 744 W/m² | - |
| 1777579787 | 18.89° C | 32% | 1018.8 hPa | 0 mm | - | 752 W/m² | - |
| 1777579484 | 18.89° C | 30% | 1018.6 hPa | 0 mm | - | 750 W/m² | - |
| 1777579180 | 18.89° C | 27% | 1018.8 hPa | 0 mm | - | 759 W/m² | - |
| 1777578875 | 18.89° C | 29% | 1019 hPa | 0 mm | - | 761 W/m² | - |
| 1777578571 | 18.89° C | 32% | 1019 hPa | 0 mm | - | 759 W/m² | - |
| 1777578266 | 19.44° C | 28% | 1018.6 hPa | 0 mm | - | 769 W/m² | - |
| 1777577962 | 18.33° C | 26% | 1019 hPa | 0 mm | - | 783 W/m² | - |
| 1777577657 | 18.89° C | 27% | 1019 hPa | 0 mm | - | 775 W/m² | - |
| 1777577355 | 18.33° C | 27% | 1019.1 hPa | 0 mm | - | 790 W/m² | - |
| 1777577050 | 18.33° C | 25% | 1019.1 hPa | 0 mm | - | 786 W/m² | - |
| 1777576748 | 18.33° C | 27% | 1019.2 hPa | 0 mm | - | 774 W/m² | - |
| 1777576446 | 18.89° C | 27% | 1019.2 hPa | 0 mm | - | 807 W/m² | - |
| 1777576144 | 17.78° C | 30% | 1019.4 hPa | 0 mm | - | 812 W/m² | - |
| 1777575838 | 17.78° C | 31% | 1019.4 hPa | 0 mm | - | 831 W/m² | - |
* Rain latest hour (hover to see other rain measurements)
** Current wind speed in m/s (hover to see current wind gust speed)